(°C)
(°C)
SO
SO
SO
OSO
OSO
OSO
O
(km/h)
11-22
11-23
11-23
11-23
11-24
12-25
12-26
(mm)
0
0
0
0
0
0
0
(%)
0
0
0
0
0
0
0

Sonnenhöhe

/ -24.9°
sun-icon
UV 1
05:59
18:19
Abnehmender Mond (209°)
18:45
08:53

METAR für 64.6°N 40.72°O (ULAA)

Zeit Bedingungen Temperatur/
Taupunkt
Wind Sichtweite Wetter Wolken Druck Änderung Roh
MVFR 7°C / 5°C 170º variable 110º to 220º 4kt >10km - Overcast 1100ft 1015 No Significant change. Runway 08: Wet or puddles, 51-100% contamination with <1mm, friction coefficient 0.60. ULAA 232000Z 17002MPS 110V220 9999 OVC011 07/05 Q1015 R08/290060 NOSIG RMK QFE760/1014
MVFR 7°C / 5°C 180º variable 130º to 220º 4kt >10km - Overcast 1200ft 1015 No Significant change. Runway 08: Wet or puddles, 51-100% contamination with <1mm, friction coefficient 0.60. ULAA 231930Z 18002MPS 130V220 9999 OVC012 07/05 Q1015 R08/290060 NOSIG RMK QFE760/1014
MVFR 7°C / 5°C 170º variable 100º to 250º 4kt >10km - Overcast 1200ft 1015 No Significant change. Runway 08: Wet or puddles, 51-100% contamination with <1mm, friction coefficient 0.60. ULAA 231900Z 17002MPS 100V250 9999 OVC012 07/05 Q1015 R08/290060 NOSIG RMK QFE760/1014
MVFR 7°C / 5°C 180º variable 120º to 220º 6kt >10km - Overcast 1400ft 1015 No Significant change. Runway 08: Wet or puddles, 51-100% contamination with <1mm, friction coefficient 0.60. ULAA 231830Z 18003MPS 120V220 9999 OVC014 07/05 Q1015 R08/290060 NOSIG RMK QFE761/1014
MVFR 7°C / 5°C 180º variable 130º to 220º 6kt >10km Light Rain 1.00mm precipitation Vertical Visibility of 0ft. 1016 No Significant change. Runway 08: Wet or puddles, 51-100% contamination with <1mm, friction coefficient 0.60. ULAA 231800Z 18003MPS 130V220 9999 -RA OVC014 07/05 Q1016 R08/290060 NOSIG RMK QFE761/1014
MVFR 7°C / 5°C 170º variable 120º to 220º 6kt >10km - Overcast 1700ft 1016 No Significant change. Runway 08: Damp, 51-100% contamination with <1mm, friction coefficient 0.65. ULAA 231730Z 17003MPS 120V220 9999 OVC017 07/05 Q1016 R08/190065 NOSIG RMK QFE761/1015
MVFR 7°C / 5°C 160º variable 120º to 220º 6kt >10km Light Rain 1.00mm precipitation Vertical Visibility of 0ft. 1016 No Significant change. Runway 08: Damp, 51-100% contamination with <1mm, friction coefficient 0.65. ULAA 231700Z 16003MPS 120V220 9999 -RA OVC016 07/05 Q1016 R08/190065 NOSIG RMK QFE761/1015
MVFR 7°C / 5°C 170º variable 090º to 210º 6kt >10km - Overcast 1700ft 1016 No Significant change ULAA 231630Z 17003MPS 090V210 9999 OVC017 07/05 Q1016 R08/CLRD70 NOSIG RMK QFE761/1015
MVFR 7°C / 4°C 170º variable 110º to 220º 8kt >10km - Overcast 1900ft 1016 No Significant change ULAA 231600Z 17004MPS 110V220 9999 OVC019 07/04 Q1016 R08/CLRD70 NOSIG RMK QFE761/1015
MVFR 7°C / 4°C 160º variable 100º to 210º 6kt >10km - Overcast 2300ft 1016 No Significant change ULAA 231530Z 16003MPS 100V210 9999 OVC023 07/04 Q1016 R08/CLRD70 NOSIG RMK QFE761/1015
MVFR 8°C / 4°C 160º variable 120º to 240º 8kt >10km - Overcast 2300ft 1016 No Significant change ULAA 231500Z 16004MPS 120V240 9999 OVC023 08/04 Q1016 R08/CLRD70 NOSIG RMK QFE761/1015
MVFR 8°C / 4°C 150º variable 100º to 200º 6kt >10km - Overcast 2100ft 1017 No Significant change ULAA 231430Z 15003MPS 100V200 9999 OVC021 08/04 Q1017 R08/CLRD70 NOSIG RMK QFE761/1015
MVFR 8°C / 4°C 150º variable 120º to 200º 10kt >10km - Overcast 2100ft 1017 No Significant change ULAA 231400Z 15005MPS 120V200 9999 OVC021 08/04 Q1017 R08/CLRD70 NOSIG RMK QFE761/1015
MVFR 8°C / 4°C 170º variable 110º to 230º 6kt >10km - Overcast 1900ft 1017 No Significant change ULAA 231330Z 17003MPS 110V230 9999 OVC019 08/04 Q1017 R08/CLRD70 NOSIG RMK QFE762/1016
MVFR 8°C / 4°C 180º variable 130º to 240º 8kt >10km - Overcast 1900ft 1017 No Significant change ULAA 231300Z 18004MPS 130V240 9999 OVC019 08/04 Q1017 R08/CLRD70 NOSIG RMK QFE762/1016
MVFR 8°C / 4°C 150º variable 110º to 200º 10kt >10km - Overcast 2200ft 1017 No Significant change ULAA 231230Z 15005MPS 110V200 9999 OVC022 08/04 Q1017 R08/CLRD70 NOSIG RMK QFE762/1016
VFR 8°C / 4°C 150º variable 100º to 210º 10kt >10km - Overcast 3600ft 1018 No Significant change ULAA 231200Z 15005MPS 100V210 9999 OVC036 08/04 Q1018 R08/CLRD70 NOSIG RMK QFE762/1016
VFR 8°C / 4°C 170º variable 120º to 210º 8kt Gust 19kt >10km - Overcast 3800ft 1018 No Significant change ULAA 231130Z 17004G10MPS 120V210 9999 OVC038 08/04 Q1018 R08/CLRD70 NOSIG RMK QFE762/1016
VFR 9°C / 4°C 160º variable 100º to 210º 10kt >10km - Overcast 3800ft 1018 No Significant change ULAA 231100Z 16005MPS 100V210 9999 OVC038 09/04 Q1018 R08/CLRD70 NOSIG RMK QFE762/1017
VFR 9°C / 3°C 170º variable 110º to 220º 10kt Gust 19kt >10km - Broken Clouds 4000ft 1018 No Significant change ULAA 231030Z 17005G10MPS 110V220 9999 BKN040 09/03 Q1018 R08/CLRD70 NOSIG RMK QFE763/1017
VFR 9°C / 3°C 170º variable 090º to 220º 10kt >10km - Few Clouds 2000ft 1018 No Significant change ULAA 231000Z 17005MPS 090V220 9999 FEW020 09/03 Q1018 R08/CLRD70 NOSIG RMK QFE763/1017
VFR 9°C / 3°C 150º variable 100º to 190º 10kt >10km - Few Clouds 2000ft 1019 No Significant change ULAA 230930Z 15005MPS 100V190 9999 FEW020 09/03 Q1019 R08/CLRD70 NOSIG RMK QFE763/1017
VFR 9°C / 3°C 170º variable 100º to 220º 8kt >10km - Few Clouds 2000ft 1019 No Significant change ULAA 230900Z 17004MPS 100V220 9999 FEW020 09/03 Q1019 R08/CLRD70 NOSIG RMK QFE763/1018
VFR 9°C / 3°C 140º variable 060º to 180º 10kt >10km - Few Clouds 2000ft 1019 No Significant change ULAA 230830Z 14005MPS 060V180 9999 FEW020 09/03 Q1019 R08/CLRD70 NOSIG RMK QFE763/1018

MVFR

7°C / 5°C

[Mehr]
Wind 170º variable 110º to 220º 4kt
Sichtweite >10km
Wetter -
Wolken Overcast 1100ft
Druck 1015
Änderung No Significant change. Runway 08: Wet or puddles, 51-100% contamination with <1mm, friction coefficient 0.60.
Roh ULAA 232000Z 17002MPS 110V220 9999 OVC011 07/05 Q1015 R08/290060 NOSIG RMK QFE760/1014

MVFR

7°C / 5°C

[Mehr]
Wind 180º variable 130º to 220º 4kt
Sichtweite >10km
Wetter -
Wolken Overcast 1200ft
Druck 1015
Änderung No Significant change. Runway 08: Wet or puddles, 51-100% contamination with <1mm, friction coefficient 0.60.
Roh ULAA 231930Z 18002MPS 130V220 9999 OVC012 07/05 Q1015 R08/290060 NOSIG RMK QFE760/1014

MVFR

7°C / 5°C

[Mehr]
Wind 170º variable 100º to 250º 4kt
Sichtweite >10km
Wetter -
Wolken Overcast 1200ft
Druck 1015
Änderung No Significant change. Runway 08: Wet or puddles, 51-100% contamination with <1mm, friction coefficient 0.60.
Roh ULAA 231900Z 17002MPS 100V250 9999 OVC012 07/05 Q1015 R08/290060 NOSIG RMK QFE760/1014

MVFR

7°C / 5°C

[Mehr]
Wind 180º variable 120º to 220º 6kt
Sichtweite >10km
Wetter -
Wolken Overcast 1400ft
Druck 1015
Änderung No Significant change. Runway 08: Wet or puddles, 51-100% contamination with <1mm, friction coefficient 0.60.
Roh ULAA 231830Z 18003MPS 120V220 9999 OVC014 07/05 Q1015 R08/290060 NOSIG RMK QFE761/1014

MVFR

7°C / 5°C

[Mehr]
Wind 180º variable 130º to 220º 6kt
Sichtweite >10km
Wetter Light Rain 1.00mm precipitation
Wolken Vertical Visibility of 0ft.
Druck 1016
Änderung No Significant change. Runway 08: Wet or puddles, 51-100% contamination with <1mm, friction coefficient 0.60.
Roh ULAA 231800Z 18003MPS 130V220 9999 -RA OVC014 07/05 Q1016 R08/290060 NOSIG RMK QFE761/1014

MVFR

7°C / 5°C

[Mehr]
Wind 170º variable 120º to 220º 6kt
Sichtweite >10km
Wetter -
Wolken Overcast 1700ft
Druck 1016
Änderung No Significant change. Runway 08: Damp, 51-100% contamination with <1mm, friction coefficient 0.65.
Roh ULAA 231730Z 17003MPS 120V220 9999 OVC017 07/05 Q1016 R08/190065 NOSIG RMK QFE761/1015

MVFR

7°C / 5°C

[Mehr]
Wind 160º variable 120º to 220º 6kt
Sichtweite >10km
Wetter Light Rain 1.00mm precipitation
Wolken Vertical Visibility of 0ft.
Druck 1016
Änderung No Significant change. Runway 08: Damp, 51-100% contamination with <1mm, friction coefficient 0.65.
Roh ULAA 231700Z 16003MPS 120V220 9999 -RA OVC016 07/05 Q1016 R08/190065 NOSIG RMK QFE761/1015

MVFR

7°C / 5°C

[Mehr]
Wind 170º variable 090º to 210º 6kt
Sichtweite >10km
Wetter -
Wolken Overcast 1700ft
Druck 1016
Änderung No Significant change
Roh ULAA 231630Z 17003MPS 090V210 9999 OVC017 07/05 Q1016 R08/CLRD70 NOSIG RMK QFE761/1015

MVFR

7°C / 4°C

[Mehr]
Wind 170º variable 110º to 220º 8kt
Sichtweite >10km
Wetter -
Wolken Overcast 1900ft
Druck 1016
Änderung No Significant change
Roh ULAA 231600Z 17004MPS 110V220 9999 OVC019 07/04 Q1016 R08/CLRD70 NOSIG RMK QFE761/1015

MVFR

7°C / 4°C

[Mehr]
Wind 160º variable 100º to 210º 6kt
Sichtweite >10km
Wetter -
Wolken Overcast 2300ft
Druck 1016
Änderung No Significant change
Roh ULAA 231530Z 16003MPS 100V210 9999 OVC023 07/04 Q1016 R08/CLRD70 NOSIG RMK QFE761/1015

MVFR

8°C / 4°C

[Mehr]
Wind 160º variable 120º to 240º 8kt
Sichtweite >10km
Wetter -
Wolken Overcast 2300ft
Druck 1016
Änderung No Significant change
Roh ULAA 231500Z 16004MPS 120V240 9999 OVC023 08/04 Q1016 R08/CLRD70 NOSIG RMK QFE761/1015

MVFR

8°C / 4°C

[Mehr]
Wind 150º variable 100º to 200º 6kt
Sichtweite >10km
Wetter -
Wolken Overcast 2100ft
Druck 1017
Änderung No Significant change
Roh ULAA 231430Z 15003MPS 100V200 9999 OVC021 08/04 Q1017 R08/CLRD70 NOSIG RMK QFE761/1015

MVFR

8°C / 4°C

[Mehr]
Wind 150º variable 120º to 200º 10kt
Sichtweite >10km
Wetter -
Wolken Overcast 2100ft
Druck 1017
Änderung No Significant change
Roh ULAA 231400Z 15005MPS 120V200 9999 OVC021 08/04 Q1017 R08/CLRD70 NOSIG RMK QFE761/1015

MVFR

8°C / 4°C

[Mehr]
Wind 170º variable 110º to 230º 6kt
Sichtweite >10km
Wetter -
Wolken Overcast 1900ft
Druck 1017
Änderung No Significant change
Roh ULAA 231330Z 17003MPS 110V230 9999 OVC019 08/04 Q1017 R08/CLRD70 NOSIG RMK QFE762/1016

MVFR

8°C / 4°C

[Mehr]
Wind 180º variable 130º to 240º 8kt
Sichtweite >10km
Wetter -
Wolken Overcast 1900ft
Druck 1017
Änderung No Significant change
Roh ULAA 231300Z 18004MPS 130V240 9999 OVC019 08/04 Q1017 R08/CLRD70 NOSIG RMK QFE762/1016

MVFR

8°C / 4°C

[Mehr]
Wind 150º variable 110º to 200º 10kt
Sichtweite >10km
Wetter -
Wolken Overcast 2200ft
Druck 1017
Änderung No Significant change
Roh ULAA 231230Z 15005MPS 110V200 9999 OVC022 08/04 Q1017 R08/CLRD70 NOSIG RMK QFE762/1016

VFR

8°C / 4°C

[Mehr]
Wind 150º variable 100º to 210º 10kt
Sichtweite >10km
Wetter -
Wolken Overcast 3600ft
Druck 1018
Änderung No Significant change
Roh ULAA 231200Z 15005MPS 100V210 9999 OVC036 08/04 Q1018 R08/CLRD70 NOSIG RMK QFE762/1016

VFR

8°C / 4°C

[Mehr]
Wind 170º variable 120º to 210º 8kt Gust 19kt
Sichtweite >10km
Wetter -
Wolken Overcast 3800ft
Druck 1018
Änderung No Significant change
Roh ULAA 231130Z 17004G10MPS 120V210 9999 OVC038 08/04 Q1018 R08/CLRD70 NOSIG RMK QFE762/1016

VFR

9°C / 4°C

[Mehr]
Wind 160º variable 100º to 210º 10kt
Sichtweite >10km
Wetter -
Wolken Overcast 3800ft
Druck 1018
Änderung No Significant change
Roh ULAA 231100Z 16005MPS 100V210 9999 OVC038 09/04 Q1018 R08/CLRD70 NOSIG RMK QFE762/1017

VFR

9°C / 3°C

[Mehr]
Wind 170º variable 110º to 220º 10kt Gust 19kt
Sichtweite >10km
Wetter -
Wolken Broken Clouds 4000ft
Druck 1018
Änderung No Significant change
Roh ULAA 231030Z 17005G10MPS 110V220 9999 BKN040 09/03 Q1018 R08/CLRD70 NOSIG RMK QFE763/1017

VFR

9°C / 3°C

[Mehr]
Wind 170º variable 090º to 220º 10kt
Sichtweite >10km
Wetter -
Wolken Few Clouds 2000ft
Druck 1018
Änderung No Significant change
Roh ULAA 231000Z 17005MPS 090V220 9999 FEW020 09/03 Q1018 R08/CLRD70 NOSIG RMK QFE763/1017

VFR

9°C / 3°C

[Mehr]
Wind 150º variable 100º to 190º 10kt
Sichtweite >10km
Wetter -
Wolken Few Clouds 2000ft
Druck 1019
Änderung No Significant change
Roh ULAA 230930Z 15005MPS 100V190 9999 FEW020 09/03 Q1019 R08/CLRD70 NOSIG RMK QFE763/1017

VFR

9°C / 3°C

[Mehr]
Wind 170º variable 100º to 220º 8kt
Sichtweite >10km
Wetter -
Wolken Few Clouds 2000ft
Druck 1019
Änderung No Significant change
Roh ULAA 230900Z 17004MPS 100V220 9999 FEW020 09/03 Q1019 R08/CLRD70 NOSIG RMK QFE763/1018

VFR

9°C / 3°C

[Mehr]
Wind 140º variable 060º to 180º 10kt
Sichtweite >10km
Wetter -
Wolken Few Clouds 2000ft
Druck 1019
Änderung No Significant change
Roh ULAA 230830Z 14005MPS 060V180 9999 FEW020 09/03 Q1019 R08/CLRD70 NOSIG RMK QFE763/1018

TAF für 64.6°N 40.72°O (ULAA)

From till


From till Wind 170º 6kt. Visibility 10km or more. Broken Clouds 1100ft.
Temporarly from till Wind 150º 6kt. Gust 19kt. Visibility 6000m. Light Showers Rain . Broken Clouds 700ft. Broken Clouds 1600ft.
Temporarly from till Wind 170º 10kt. Gust 27kt. Visibility 4000m. Light Showers Rain . Broken Clouds 500ft. Broken Clouds 1600ft.

Roh: TAF ULAA 232000Z 2321/2421 17003MPS 9999 BKN011 TEMPO 2321/2409 15003G10MPS 6000 -SHRA BKN007 BKN016CB TEMPO 2409/2421 17005G14MPS 4000 -SHRA BKN005 BKN016CB

Aktuelle Satelliten- und Regenbilder für 64.6°N 40.72°O

Die Standortmarkierung ist platziert auf 64.6°N 40.72°O. [Mehr]

Das Echtzeit-Satellitenbild kombiniert sichtbares Licht während des Tages mit Infrarotstrahlung während der Nacht. Nachts ist das Bild nicht dunkel, da Infrarotstrahlung Temperaturunterschiede erkennen kann. Leider sind niedrige Wolken und Nebel nur schwer von den Bodentemperaturen zu unterscheiden und können daher nachts fast unsichtbar sein. Meteosat-Satellitenbilder für Europa werden alle 5 Minuten in Echtzeit aktualisiert. Die Bilder GOES-16 / GOES-17 (Nord- und Südamerika) und Himawari (Asien) werden alle 10 Minuten aktualisiert.

Copyright 2021 EUMETSAT / meteoblue. / Copyright 2021 meteoblue

Radar- und Niederschlags-Nowcast für 64.6°N 40.72°O

Nieselregen
Leicht
Moderat
Stark
Sehr stark
Hagel

Die Ortsmarkierung zeigt auf 64.6°N 40.72°O. Diese Animation zeigt das Niederschlagsradar der letzten Stunde, sowie eine 1h Vorhersage. Nieselregen und leichter Schneefall können für das Radar unsichtbar sein. Die Niederschlagsintensität ist farbcodiert von Hellblau bis Orange.